sensor_id;sensor_type;location;lat;lon;timestamp;pressure;altitude;pressure_sealevel;temperature;humidity
6835;BME280;3455;42.150;24.734;2023-02-13T00:00:00;66426.47;;;11.01;37.75
6835;BME280;3455;42.150;24.734;2023-02-13T00:02:27;66451.59;;;11.14;37.34
6835;BME280;3455;42.150;24.734;2023-02-13T00:04:54;66411.97;;;11.06;37.46
6835;BME280;3455;42.150;24.734;2023-02-13T00:07:20;66474.19;;;11.16;37.67
6835;BME280;3455;42.150;24.734;2023-02-13T00:09:47;66468.56;;;11.16;37.39
6835;BME280;3455;42.150;24.734;2023-02-13T00:12:14;66444.94;;;11.17;37.62
6835;BME280;3455;42.150;24.734;2023-02-13T00:14:42;66437.09;;;11.08;37.58
6835;BME280;3455;42.150;24.734;2023-02-13T00:17:08;66392.81;;;10.84;37.81
6835;BME280;3455;42.150;24.734;2023-02-13T00:19:35;66386.84;;;11.15;37.70
6835;BME280;3455;42.150;24.734;2023-02-13T00:22:02;66425.78;;;10.96;37.78
6835;BME280;3455;42.150;24.734;2023-02-13T00:24:29;66415.50;;;10.91;38.34
6835;BME280;3455;42.150;24.734;2023-02-13T00:26:55;66432.00;;;10.97;38.00
6835;BME280;3455;42.150;24.734;2023-02-13T00:29:22;66442.84;;;11.24;37.74
6835;BME280;3455;42.150;24.734;2023-02-13T00:31:50;66428.56;;;11.16;38.00
6835;BME280;3455;42.150;24.734;2023-02-13T00:34:17;66419.78;;;10.93;38.09
6835;BME280;3455;42.150;24.734;2023-02-13T00:36:44;66460.72;;;11.06;37.48
6835;BME280;3455;42.150;24.734;2023-02-13T00:39:11;66472.84;;;11.17;37.75
6835;BME280;3455;42.150;24.734;2023-02-13T00:41:38;66417.91;;;10.75;38.34
6835;BME280;3455;42.150;24.734;2023-02-13T00:44:05;66396.94;;;10.70;38.59
6835;BME280;3455;42.150;24.734;2023-02-13T00:46:31;66420.91;;;10.82;38.50
6835;BME280;3455;42.150;24.734;2023-02-13T00:49:00;66430.13;;;10.90;38.37
6835;BME280;3455;42.150;24.734;2023-02-13T00:51:26;66396.72;;;10.83;38.32
6835;BME280;3455;42.150;24.734;2023-02-13T00:53:53;66417.69;;;10.88;38.38
6835;BME280;3455;42.150;24.734;2023-02-13T00:56:20;66407.53;;;10.77;38.43
6835;BME280;3455;42.150;24.734;2023-02-13T00:58:47;66391.28;;;10.69;38.56
6835;BME280;3455;42.150;24.734;2023-02-13T01:01:14;66443.75;;;10.94;38.04
6835;BME280;3455;42.150;24.734;2023-02-13T01:03:41;66403.50;;;10.85;38.41
6835;BME280;3455;42.150;24.734;2023-02-13T01:06:09;66461.63;;;11.09;37.94
6835;BME280;3455;42.150;24.734;2023-02-13T01:08:38;66424.94;;;10.86;38.81
6835;BME280;3455;42.150;24.734;2023-02-13T01:11:05;66459.41;;;10.89;38.51
6835;BME280;3455;42.150;24.734;2023-02-13T01:13:32;66442.81;;;11.02;38.56
6835;BME280;3455;42.150;24.734;2023-02-13T01:15:59;66475.16;;;11.30;37.82
6835;BME280;3455;42.150;24.734;2023-02-13T01:18:26;66405.63;;;11.00;38.12
6835;BME280;3455;42.150;24.734;2023-02-13T01:20:57;66443.78;;;11.16;37.56
6835;BME280;3455;42.150;24.734;2023-02-13T01:23:29;66458.19;;;11.18;38.14
6835;BME280;3455;42.150;24.734;2023-02-13T01:25:56;66444.22;;;11.01;38.36
6835;BME280;3455;42.150;24.734;2023-02-13T01:28:22;66439.03;;;11.07;38.04
6835;BME280;3455;42.150;24.734;2023-02-13T01:30:52;66410.56;;;10.96;38.45
6835;BME280;3455;42.150;24.734;2023-02-13T01:33:19;66431.72;;;10.65;39.21
6835;BME280;3455;42.150;24.734;2023-02-13T01:35:45;66439.19;;;10.71;38.62
6835;BME280;3455;42.150;24.734;2023-02-13T01:38:12;66415.84;;;10.82;38.65
6835;BME280;3455;42.150;24.734;2023-02-13T01:40:45;66391.63;;;10.61;39.19
6835;BME280;3455;42.150;24.734;2023-02-13T01:43:11;66375.28;;;10.71;39.09
6835;BME280;3455;42.150;24.734;2023-02-13T01:45:38;66420.41;;;10.64;39.31
6835;BME280;3455;42.150;24.734;2023-02-13T01:48:07;66365.34;;;10.46;39.83
6835;BME280;3455;42.150;24.734;2023-02-13T01:50:39;66381.38;;;10.16;40.86
6835;BME280;3455;42.150;24.734;2023-02-13T01:53:11;66371.06;;;10.29;40.51
6835;BME280;3455;42.150;24.734;2023-02-13T01:55:44;66325.44;;;10.06;41.38
6835;BME280;3455;42.150;24.734;2023-02-13T01:58:16;66330.69;;;9.93;41.52
6835;BME280;3455;42.150;24.734;2023-02-13T02:00:45;66307.19;;;9.77;41.95
6835;BME280;3455;42.150;24.734;2023-02-13T02:03:18;66317.78;;;9.84;42.09
6835;BME280;3455;42.150;24.734;2023-02-13T02:05:49;66270.25;;;9.21;43.63
6835;BME280;3455;42.150;24.734;2023-02-13T02:08:17;66221.88;;;8.78;44.86
6835;BME280;3455;42.150;24.734;2023-02-13T02:10:45;66223.09;;;9.02;44.17
6835;BME280;3455;42.150;24.734;2023-02-13T02:13:15;66223.91;;;8.71;44.74
6835;BME280;3455;42.150;24.734;2023-02-13T02:15:43;66206.91;;;8.65;45.35
6835;BME280;3455;42.150;24.734;2023-02-13T02:18:13;66220.22;;;8.70;45.04
6835;BME280;3455;42.150;24.734;2023-02-13T02:21:03;66164.19;;;8.63;45.63
6835;BME280;3455;42.150;24.734;2023-02-13T02:23:57;66213.53;;;8.62;45.54
6835;BME280;3455;42.150;24.734;2023-02-13T02:30:04;66166.56;;;8.29;47.01
6835;BME280;3455;42.150;24.734;2023-02-13T02:32:57;66159.88;;;8.21;46.58
6835;BME280;3455;42.150;24.734;2023-02-13T02:35:34;66180.44;;;8.23;46.90
6835;BME280;3455;42.150;24.734;2023-02-13T02:41:00;66104.41;;;7.73;48.79
6835;BME280;3455;42.150;24.734;2023-02-13T02:43:43;66129.44;;;7.87;47.75
6835;BME280;3455;42.150;24.734;2023-02-13T02:46:17;66143.84;;;7.99;48.32
6835;BME280;3455;42.150;24.734;2023-02-13T02:48:53;66117.72;;;7.78;48.14
6835;BME280;3455;42.150;24.734;2023-02-13T02:51:46;66133.75;;;7.99;48.21
6835;BME280;3455;42.150;24.734;2023-02-13T02:54:16;66105.56;;;7.74;48.74
6835;BME280;3455;42.150;24.734;2023-02-13T02:57:08;66092.75;;;7.76;49.23
6835;BME280;3455;42.150;24.734;2023-02-13T02:59:36;66105.28;;;7.65;48.65
6835;BME280;3455;42.150;24.734;2023-02-13T03:02:22;66114.66;;;7.60;48.67
6835;BME280;3455;42.150;24.734;2023-02-13T03:05:16;66124.03;;;7.55;49.00
6835;BME280;3455;42.150;24.734;2023-02-13T03:08:03;66084.31;;;7.37;49.76
6835;BME280;3455;42.150;24.734;2023-02-13T03:10:34;66127.59;;;7.80;48.09
6835;BME280;3455;42.150;24.734;2023-02-13T03:13:34;66104.34;;;7.62;49.06
6835;BME280;3455;42.150;24.734;2023-02-13T03:16:04;66081.72;;;7.26;49.73
6835;BME280;3455;42.150;24.734;2023-02-13T03:18:52;66083.88;;;7.41;50.00
6835;BME280;3455;42.150;24.734;2023-02-13T03:21:46;66092.63;;;7.54;49.30
6835;BME280;3455;42.150;24.734;2023-02-13T03:24:40;66105.88;;;7.66;49.40
6835;BME280;3455;42.150;24.734;2023-02-13T03:27:16;66085.66;;;7.54;49.75
6835;BME280;3455;42.150;24.734;2023-02-13T03:30:14;66069.06;;;7.33;49.55
6835;BME280;3455;42.150;24.734;2023-02-13T03:32:47;66076.69;;;7.26;50.18
6835;BME280;3455;42.150;24.734;2023-02-13T03:35:26;66067.00;;;7.40;49.67
6835;BME280;3455;42.150;24.734;2023-02-13T03:38:18;66075.69;;;7.12;50.43
6835;BME280;3455;42.150;24.734;2023-02-13T03:40:48;66071.81;;;7.13;50.88
6835;BME280;3455;42.150;24.734;2023-02-13T03:43:40;66050.06;;;7.16;50.54
6835;BME280;3455;42.150;24.734;2023-02-13T03:46:08;66031.19;;;6.74;52.19
6835;BME280;3455;42.150;24.734;2023-02-13T03:48:37;65995.53;;;6.60;52.67
6835;BME280;3455;42.150;24.734;2023-02-13T03:51:27;66012.44;;;7.02;51.57
6835;BME280;3455;42.150;24.734;2023-02-13T03:53:59;66083.75;;;7.19;51.48
6835;BME280;3455;42.150;24.734;2023-02-13T03:56:29;66085.19;;;7.29;50.80
6835;BME280;3455;42.150;24.734;2023-02-13T03:59:21;66046.91;;;7.22;50.43
6835;BME280;3455;42.150;24.734;2023-02-13T04:01:56;66072.19;;;7.45;49.82
6835;BME280;3455;42.150;24.734;2023-02-13T04:04:29;66048.72;;;6.81;52.04
6835;BME280;3455;42.150;24.734;2023-02-13T04:07:00;66012.81;;;6.87;51.86
6835;BME280;3455;42.150;24.734;2023-02-13T04:09:33;66032.69;;;6.96;51.25
6835;BME280;3455;42.150;24.734;2023-02-13T04:12:05;65996.31;;;6.77;51.64
6835;BME280;3455;42.150;24.734;2023-02-13T04:14:37;66033.13;;;6.74;51.58
6835;BME280;3455;42.150;24.734;2023-02-13T04:17:08;65983.50;;;6.79;51.78
6835;BME280;3455;42.150;24.734;2023-02-13T04:19:36;66006.53;;;6.63;52.43
6835;BME280;3455;42.150;24.734;2023-02-13T04:22:03;65998.19;;;6.47;53.36
6835;BME280;3455;42.150;24.734;2023-02-13T04:24:31;65969.94;;;6.47;53.76
6835;BME280;3455;42.150;24.734;2023-02-13T04:26:58;65984.25;;;6.48;54.40
6835;BME280;3455;42.150;24.734;2023-02-13T04:29:25;65992.16;;;6.51;53.70
6835;BME280;3455;42.150;24.734;2023-02-13T04:31:52;66015.16;;;6.53;52.67
6835;BME280;3455;42.150;24.734;2023-02-13T04:34:19;65985.97;;;5.96;54.97
6835;BME280;3455;42.150;24.734;2023-02-13T04:36:46;65990.59;;;6.18;54.48
6835;BME280;3455;42.150;24.734;2023-02-13T04:39:13;65938.09;;;5.66;55.51
6835;BME280;3455;42.150;24.734;2023-02-13T04:41:41;65946.72;;;5.74;55.32
6835;BME280;3455;42.150;24.734;2023-02-13T04:44:08;65948.59;;;5.80;55.30
6835;BME280;3455;42.150;24.734;2023-02-13T04:46:34;65931.22;;;5.78;54.52
6835;BME280;3455;42.150;24.734;2023-02-13T04:49:01;65958.31;;;5.96;54.62
6835;BME280;3455;42.150;24.734;2023-02-13T04:51:28;65902.63;;;5.75;54.18
6835;BME280;3455;42.150;24.734;2023-02-13T04:53:55;65897.75;;;5.62;54.22
6835;BME280;3455;42.150;24.734;2023-02-13T04:56:22;65909.66;;;5.50;53.80
6835;BME280;3455;42.150;24.734;2023-02-13T04:58:50;65876.41;;;5.14;55.53
6835;BME280;3455;42.150;24.734;2023-02-13T05:01:17;65875.09;;;4.90;55.67
6835;BME280;3455;42.150;24.734;2023-02-13T05:03:43;65796.69;;;4.54;56.74
6835;BME280;3455;42.150;24.734;2023-02-13T05:06:10;65845.59;;;4.84;56.20
6835;BME280;3455;42.150;24.734;2023-02-13T05:08:37;65832.13;;;4.99;55.48
6835;BME280;3455;42.150;24.734;2023-02-13T05:11:04;65829.13;;;4.92;55.80
6835;BME280;3455;42.150;24.734;2023-02-13T05:13:31;65849.66;;;5.05;55.24
6835;BME280;3455;42.150;24.734;2023-02-13T05:15:59;65908.16;;;5.46;54.28
6835;BME280;3455;42.150;24.734;2023-02-13T05:18:26;65944.63;;;5.52;54.01
6835;BME280;3455;42.150;24.734;2023-02-13T05:20:52;65878.00;;;5.29;54.18
6835;BME280;3455;42.150;24.734;2023-02-13T05:23:37;65865.84;;;4.88;55.51
6835;BME280;3455;42.150;24.734;2023-02-13T05:26:03;65878.91;;;5.14;54.91
6835;BME280;3455;42.150;24.734;2023-02-13T05:28:30;65840.88;;;4.75;55.42
6835;BME280;3455;42.150;24.734;2023-02-13T05:31:16;65844.47;;;4.83;55.68
6835;BME280;3455;42.150;24.734;2023-02-13T05:33:43;65840.19;;;4.88;55.91
6835;BME280;3455;42.150;24.734;2023-02-13T05:36:09;65888.25;;;5.09;55.42
6835;BME280;3455;42.150;24.734;2023-02-13T05:38:36;65889.25;;;5.23;54.79
6835;BME280;3455;42.150;24.734;2023-02-13T05:41:05;65884.25;;;5.23;54.83
6835;BME280;3455;42.150;24.734;2023-02-13T05:43:32;65909.88;;;5.48;53.97
6835;BME280;3455;42.150;24.734;2023-02-13T05:46:03;65918.69;;;5.54;54.11
6835;BME280;3455;42.150;24.734;2023-02-13T05:48:31;65845.44;;;5.22;54.41
6835;BME280;3455;42.150;24.734;2023-02-13T05:50:58;65812.69;;;4.75;55.07
6835;BME280;3455;42.150;24.734;2023-02-13T05:53:25;65919.69;;;5.32;54.46
6835;BME280;3455;42.150;24.734;2023-02-13T05:55:54;65928.19;;;5.71;53.33
6835;BME280;3455;42.150;24.734;2023-02-13T05:58:20;65964.81;;;5.81;52.73
6835;BME280;3455;42.150;24.734;2023-02-13T06:00:47;65937.13;;;6.06;52.56
6835;BME280;3455;42.150;24.734;2023-02-13T06:03:14;65931.50;;;5.88;52.72
6835;BME280;3455;42.150;24.734;2023-02-13T06:05:42;65991.50;;;6.21;51.52
6835;BME280;3455;42.150;24.734;2023-02-13T06:08:09;65945.19;;;5.95;51.97
6835;BME280;3455;42.150;24.734;2023-02-13T06:10:35;65999.91;;;6.31;52.36
6835;BME280;3455;42.150;24.734;2023-02-13T06:13:02;65978.66;;;6.30;51.35
6835;BME280;3455;42.150;24.734;2023-02-13T06:15:29;66063.34;;;6.92;49.34
6835;BME280;3455;42.150;24.734;2023-02-13T06:17:56;66065.50;;;6.71;50.17
6835;BME280;3455;42.150;24.734;2023-02-13T06:20:23;66041.19;;;6.81;49.68
6835;BME280;3455;42.150;24.734;2023-02-13T06:22:51;66043.25;;;6.85;50.35
6835;BME280;3455;42.150;24.734;2023-02-13T06:25:18;66064.63;;;6.97;50.70
6835;BME280;3455;42.150;24.734;2023-02-13T06:27:46;66056.25;;;7.17;49.33
6835;BME280;3455;42.150;24.734;2023-02-13T06:30:14;66137.19;;;7.73;47.86
6835;BME280;3455;42.150;24.734;2023-02-13T06:32:41;66112.47;;;7.33;48.46
6835;BME280;3455;42.150;24.734;2023-02-13T06:35:08;66238.09;;;8.86;47.51
6835;BME280;3455;42.150;24.734;2023-02-13T06:37:34;66429.41;;;10.63;42.48
6835;BME280;3455;42.150;24.734;2023-02-13T06:40:03;66502.38;;;11.59;39.73
6835;BME280;3455;42.150;24.734;2023-02-13T06:42:30;66589.94;;;12.28;38.52
6835;BME280;3455;42.150;24.734;2023-02-13T06:44:56;66816.13;;;14.33;35.11
6835;BME280;3455;42.150;24.734;2023-02-13T06:47:23;66892.28;;;15.37;32.59
6835;BME280;3455;42.150;24.734;2023-02-13T06:49:50;67013.75;;;16.24;30.60
6835;BME280;3455;42.150;24.734;2023-02-13T06:52:17;67106.53;;;17.06;29.17
6835;BME280;3455;42.150;24.734;2023-02-13T06:54:43;67219.44;;;18.36;27.12
6835;BME280;3455;42.150;24.734;2023-02-13T06:57:11;67003.78;;;16.49;29.08
6835;BME280;3455;42.150;24.734;2023-02-13T06:59:38;66918.16;;;15.78;29.73
6835;BME280;3455;42.150;24.734;2023-02-13T07:02:05;66968.13;;;16.04;30.36
6835;BME280;3455;42.150;24.734;2023-02-13T07:04:32;66966.69;;;15.89;30.35
6835;BME280;3455;42.150;24.734;2023-02-13T07:06:59;66971.22;;;16.16;29.45
6835;BME280;3455;42.150;24.734;2023-02-13T07:09:26;67037.28;;;16.86;29.06
6835;BME280;3455;42.150;24.734;2023-02-13T07:11:52;67041.94;;;16.79;29.01
6835;BME280;3455;42.150;24.734;2023-02-13T07:14:21;67061.28;;;16.66;28.50
6835;BME280;3455;42.150;24.734;2023-02-13T07:16:47;67014.78;;;16.32;29.25
6835;BME280;3455;42.150;24.734;2023-02-13T07:19:14;67026.88;;;16.65;29.18
6835;BME280;3455;42.150;24.734;2023-02-13T07:21:41;67134.06;;;17.56;27.86
6835;BME280;3455;42.150;24.734;2023-02-13T07:24:08;67086.19;;;17.27;28.87
6835;BME280;3455;42.150;24.734;2023-02-13T07:26:35;67092.09;;;17.09;28.43
6835;BME280;3455;42.150;24.734;2023-02-13T07:29:02;66913.78;;;15.61;30.37
6835;BME280;3455;42.150;24.734;2023-02-13T07:31:32;67089.56;;;16.98;28.87
6835;BME280;3455;42.150;24.734;2023-02-13T07:33:59;67167.00;;;17.80;27.14
6835;BME280;3455;42.150;24.734;2023-02-13T07:36:26;67203.84;;;18.54;26.50
6835;BME280;3455;42.150;24.734;2023-02-13T07:38:53;67202.66;;;18.09;26.77
6835;BME280;3455;42.150;24.734;2023-02-13T07:41:21;67277.38;;;18.66;26.47
6835;BME280;3455;42.150;24.734;2023-02-13T07:43:50;67276.59;;;18.84;26.58
6835;BME280;3455;42.150;24.734;2023-02-13T07:46:17;67269.97;;;18.80;26.21
6835;BME280;3455;42.150;24.734;2023-02-13T07:48:45;67227.56;;;18.43;26.62
6835;BME280;3455;42.150;24.734;2023-02-13T07:51:11;67295.41;;;18.98;25.95
6835;BME280;3455;42.150;24.734;2023-02-13T07:53:38;67220.63;;;18.37;26.89
6835;BME280;3455;42.150;24.734;2023-02-13T07:56:05;67316.34;;;19.17;26.61
6835;BME280;3455;42.150;24.734;2023-02-13T07:58:32;67437.22;;;20.23;24.96
6835;BME280;3455;42.150;24.734;2023-02-13T08:01:05;67253.75;;;18.55;26.27
6835;BME280;3455;42.150;24.734;2023-02-13T08:03:31;67262.88;;;18.70;26.60
6835;BME280;3455;42.150;24.734;2023-02-13T08:05:59;67320.81;;;19.43;25.51
6835;BME280;3455;42.150;24.734;2023-02-13T08:08:26;67411.16;;;20.05;24.93
6835;BME280;3455;42.150;24.734;2023-02-13T08:10:53;67369.59;;;19.55;25.22
6835;BME280;3455;42.150;24.734;2023-02-13T08:13:38;67514.00;;;20.91;23.64
6835;BME280;3455;42.150;24.734;2023-02-13T08:16:05;67493.75;;;20.78;23.89
6835;BME280;3455;42.150;24.734;2023-02-13T08:18:32;67196.09;;;18.38;26.53
6835;BME280;3455;42.150;24.734;2023-02-13T08:21:02;67209.63;;;18.59;26.90
6835;BME280;3455;42.150;24.734;2023-02-13T08:23:29;67328.38;;;19.66;25.36
6835;BME280;3455;42.150;24.734;2023-02-13T08:25:58;67508.50;;;21.05;24.30
6835;BME280;3455;42.150;24.734;2023-02-13T08:28:26;67674.63;;;22.12;22.55
6835;BME280;3455;42.150;24.734;2023-02-13T08:30:53;67616.59;;;21.91;22.71
6835;BME280;3455;42.150;24.734;2023-02-13T08:33:20;67627.09;;;22.00;22.10
6835;BME280;3455;42.150;24.734;2023-02-13T08:35:47;67524.16;;;21.14;23.17
6835;BME280;3455;42.150;24.734;2023-02-13T08:38:15;67396.56;;;20.19;23.82
6835;BME280;3455;42.150;24.734;2023-02-13T08:40:42;67426.19;;;20.46;24.36
6835;BME280;3455;42.150;24.734;2023-02-13T08:43:08;67501.38;;;20.89;24.05
6835;BME280;3455;42.150;24.734;2023-02-13T08:45:35;67633.31;;;22.12;22.73
6835;BME280;3455;42.150;24.734;2023-02-13T08:48:02;67563.13;;;21.48;22.84
6835;BME280;3455;42.150;24.734;2023-02-13T08:50:29;67466.31;;;20.81;23.26
6835;BME280;3455;42.150;24.734;2023-02-13T08:52:57;67640.19;;;21.62;23.15
6835;BME280;3455;42.150;24.734;2023-02-13T08:55:25;67653.22;;;21.87;22.19
6835;BME280;3455;42.150;24.734;2023-02-13T08:57:52;67779.94;;;23.12;21.58
6835;BME280;3455;42.150;24.734;2023-02-13T09:00:19;67676.88;;;22.26;22.15
6835;BME280;3455;42.150;24.734;2023-02-13T09:02:46;67682.34;;;22.44;21.79
6835;BME280;3455;42.150;24.734;2023-02-13T09:05:13;67891.28;;;24.05;20.41
6835;BME280;3455;42.150;24.734;2023-02-13T09:07:40;67795.25;;;23.35;21.11
6835;BME280;3455;42.150;24.734;2023-02-13T09:10:08;67776.97;;;23.05;21.42
6835;BME280;3455;42.150;24.734;2023-02-13T09:12:36;67840.59;;;23.65;21.06
6835;BME280;3455;42.150;24.734;2023-02-13T09:15:03;67791.25;;;23.36;21.24
6835;BME280;3455;42.150;24.734;2023-02-13T09:17:30;67653.53;;;22.37;22.62
6835;BME280;3455;42.150;24.734;2023-02-13T09:19:57;67653.47;;;22.32;22.05
6835;BME280;3455;42.150;24.734;2023-02-13T09:22:24;67908.53;;;24.23;20.57
6835;BME280;3455;42.150;24.734;2023-02-13T09:24:50;67892.88;;;23.98;20.34
6835;BME280;3455;42.150;24.734;2023-02-13T09:27:17;67904.25;;;23.89;20.83
6835;BME280;3455;42.150;24.734;2023-02-13T09:29:45;67991.72;;;24.57;20.55
6835;BME280;3455;42.150;24.734;2023-02-13T09:32:12;67703.31;;;22.63;22.69
6835;BME280;3455;42.150;24.734;2023-02-13T09:34:38;67823.19;;;23.39;22.10
6835;BME280;3455;42.150;24.734;2023-02-13T09:37:05;67837.88;;;23.77;20.81
6835;BME280;3455;42.150;24.734;2023-02-13T09:39:32;67798.16;;;23.37;20.85
6835;BME280;3455;42.150;24.734;2023-02-13T09:41:59;67985.28;;;24.52;20.33
6835;BME280;3455;42.150;24.734;2023-02-13T09:44:33;68074.75;;;25.35;19.93
6835;BME280;3455;42.150;24.734;2023-02-13T09:47:09;67876.78;;;23.97;20.38
6835;BME280;3455;42.150;24.734;2023-02-13T09:49:42;67941.94;;;24.25;20.70
6835;BME280;3455;42.150;24.734;2023-02-13T09:52:10;67996.38;;;24.98;19.66
6835;BME280;3455;42.150;24.734;2023-02-13T09:54:36;67891.25;;;24.21;20.25
6835;BME280;3455;42.150;24.734;2023-02-13T09:57:07;68253.75;;;26.55;18.53
6835;BME280;3455;42.150;24.734;2023-02-13T09:59:52;68060.06;;;25.17;19.49
6835;BME280;3455;42.150;24.734;2023-02-13T10:02:39;68096.69;;;25.36;19.24
6835;BME280;3455;42.150;24.734;2023-02-13T10:05:22;68112.94;;;25.61;19.37
6835;BME280;3455;42.150;24.734;2023-02-13T10:07:58;68016.03;;;24.65;20.23
6835;BME280;3455;42.150;24.734;2023-02-13T10:10:33;68088.94;;;25.56;19.14
6835;BME280;3455;42.150;24.734;2023-02-13T10:13:16;68173.16;;;26.14;18.15
6835;BME280;3455;42.150;24.734;2023-02-13T10:15:52;68145.72;;;26.11;17.82
6835;BME280;3455;42.150;24.734;2023-02-13T10:18:27;68195.13;;;26.36;17.76
6835;BME280;3455;42.150;24.734;2023-02-13T10:21:00;68255.03;;;26.61;17.60
6835;BME280;3455;42.150;24.734;2023-02-13T10:23:32;68159.81;;;25.91;17.76
6835;BME280;3455;42.150;24.734;2023-02-13T10:26:02;67936.94;;;24.18;19.46
6835;BME280;3455;42.150;24.734;2023-02-13T10:28:33;68115.38;;;25.52;19.23
6835;BME280;3455;42.150;24.734;2023-02-13T10:31:04;68229.25;;;26.38;18.01
6835;BME280;3455;42.150;24.734;2023-02-13T10:33:38;68189.38;;;26.35;18.00
6835;BME280;3455;42.150;24.734;2023-02-13T10:36:14;68411.66;;;27.75;17.13
6835;BME280;3455;42.150;24.734;2023-02-13T10:38:44;68283.78;;;26.91;16.71
6835;BME280;3455;42.150;24.734;2023-02-13T10:41:24;68329.56;;;27.40;17.15
6835;BME280;3455;42.150;24.734;2023-02-13T10:44:14;68349.75;;;27.35;17.03
6835;BME280;3455;42.150;24.734;2023-02-13T10:46:52;68252.81;;;26.89;16.90
6835;BME280;3455;42.150;24.734;2023-02-13T10:49:38;68275.69;;;26.93;17.73
6835;BME280;3455;42.150;24.734;2023-02-13T10:52:17;68598.06;;;29.29;15.59
6835;BME280;3455;42.150;24.734;2023-02-13T10:55:09;68480.00;;;28.17;16.56
6835;BME280;3455;42.150;24.734;2023-02-13T10:57:52;68517.28;;;28.31;16.27
6835;BME280;3455;42.150;24.734;2023-02-13T11:00:26;68480.13;;;28.26;16.11
6835;BME280;3455;42.150;24.734;2023-02-13T11:02:56;68425.94;;;28.02;15.92
6835;BME280;3455;42.150;24.734;2023-02-13T11:05:30;68610.56;;;29.08;14.99
6835;BME280;3455;42.150;24.734;2023-02-13T11:07:58;68488.47;;;28.43;15.86
6835;BME280;3455;42.150;24.734;2023-02-13T11:10:27;68405.88;;;27.75;15.93
6835;BME280;3455;42.150;24.734;2023-02-13T11:12:54;68476.75;;;28.32;16.14
6835;BME280;3455;42.150;24.734;2023-02-13T11:15:23;68479.09;;;28.34;16.09
6835;BME280;3455;42.150;24.734;2023-02-13T11:17:52;68610.63;;;29.13;15.39
6835;BME280;3455;42.150;24.734;2023-02-13T11:20:32;68474.91;;;28.26;15.58
6835;BME280;3455;42.150;24.734;2023-02-13T11:23:24;68364.47;;;27.52;16.36
6835;BME280;3455;42.150;24.734;2023-02-13T11:25:58;68409.91;;;27.74;16.35
6835;BME280;3455;42.150;24.734;2023-02-13T11:28:27;68365.88;;;27.51;16.47
6835;BME280;3455;42.150;24.734;2023-02-13T11:31:09;68486.22;;;28.50;15.31
6835;BME280;3455;42.150;24.734;2023-02-13T11:33:36;68393.44;;;27.75;16.27
6835;BME280;3455;42.150;24.734;2023-02-13T11:36:06;68554.56;;;28.87;15.49
6835;BME280;3455;42.150;24.734;2023-02-13T11:38:33;68339.00;;;27.32;17.42
6835;BME280;3455;42.150;24.734;2023-02-13T11:41:06;68538.41;;;28.50;15.79
6835;BME280;3455;42.150;24.734;2023-02-13T11:43:35;68749.09;;;30.00;15.78
6835;BME280;3455;42.150;24.734;2023-02-13T11:46:05;68572.06;;;28.93;15.52
6835;BME280;3455;42.150;24.734;2023-02-13T11:48:32;68557.72;;;28.83;14.61
6835;BME280;3455;42.150;24.734;2023-02-13T11:51:00;68502.56;;;28.55;15.08
6835;BME280;3455;42.150;24.734;2023-02-13T11:53:29;68446.91;;;28.11;15.35
6835;BME280;3455;42.150;24.734;2023-02-13T11:56:03;68535.16;;;28.65;15.18
6835;BME280;3455;42.150;24.734;2023-02-13T11:58:31;68479.59;;;28.51;15.00
6835;BME280;3455;42.150;24.734;2023-02-13T12:01:10;68501.44;;;28.59;14.66
6835;BME280;3455;42.150;24.734;2023-02-13T12:03:39;68718.78;;;29.71;13.87
6835;BME280;3455;42.150;24.734;2023-02-13T12:06:11;68468.47;;;28.00;15.18
6835;BME280;3455;42.150;24.734;2023-02-13T12:08:40;68403.78;;;27.91;15.25
6835;BME280;3455;42.150;24.734;2023-02-13T12:11:17;68608.44;;;29.04;14.51
6835;BME280;3455;42.150;24.734;2023-02-13T12:13:47;68686.06;;;29.56;14.07
6835;BME280;3455;42.150;24.734;2023-02-13T12:16:24;68454.06;;;28.26;15.47
6835;BME280;3455;42.150;24.734;2023-02-13T12:18:57;68425.66;;;28.04;14.57
6835;BME280;3455;42.150;24.734;2023-02-13T12:21:38;68491.47;;;28.29;14.34
6835;BME280;3455;42.150;24.734;2023-02-13T12:24:17;68485.78;;;28.59;14.96
6835;BME280;3455;42.150;24.734;2023-02-13T12:26:52;68365.97;;;27.35;15.19
6835;BME280;3455;42.150;24.734;2023-02-13T12:29:50;68458.03;;;28.21;15.15
6835;BME280;3455;42.150;24.734;2023-02-13T12:32:28;68513.63;;;28.60;14.18
6835;BME280;3455;42.150;24.734;2023-02-13T12:35:12;68504.38;;;28.61;14.59
6835;BME280;3455;42.150;24.734;2023-02-13T12:37:51;68289.63;;;26.96;15.18
6835;BME280;3455;42.150;24.734;2023-02-13T12:40:41;68427.44;;;27.85;15.48
6835;BME280;3455;42.150;24.734;2023-02-13T12:43:27;68491.44;;;28.50;13.83
6835;BME280;3455;42.150;24.734;2023-02-13T12:46:00;68447.03;;;28.20;13.90
6835;BME280;3455;42.150;24.734;2023-02-13T12:48:37;68501.66;;;28.31;13.89
6835;BME280;3455;42.150;24.734;2023-02-13T12:51:24;68636.34;;;29.51;13.28
6835;BME280;3455;42.150;24.734;2023-02-13T12:54:10;68347.53;;;27.42;14.55
6835;BME280;3455;42.150;24.734;2023-02-13T12:57:00;68440.50;;;28.10;14.43
6835;BME280;3455;42.150;24.734;2023-02-13T12:59:39;68295.19;;;27.24;14.84
6835;BME280;3455;42.150;24.734;2023-02-13T13:02:26;68407.31;;;27.94;13.95
6835;BME280;3455;42.150;24.734;2023-02-13T13:05:07;68439.16;;;28.15;14.43
6835;BME280;3455;42.150;24.734;2023-02-13T13:07:52;68397.41;;;27.90;14.13
6835;BME280;3455;42.150;24.734;2023-02-13T13:10:35;68442.34;;;28.16;14.21
6835;BME280;3455;42.150;24.734;2023-02-13T13:13:14;68676.34;;;29.45;13.12
6835;BME280;3455;42.150;24.734;2023-02-13T13:15:50;68619.97;;;29.17;13.13
6835;BME280;3455;42.150;24.734;2023-02-13T13:18:28;68622.03;;;29.41;13.17
6835;BME280;3455;42.150;24.734;2023-02-13T13:21:03;68568.59;;;28.95;13.40
6835;BME280;3455;42.150;24.734;2023-02-13T13:23:37;68387.78;;;27.64;15.05
6835;BME280;3455;42.150;24.734;2023-02-13T13:26:14;68396.88;;;27.94;13.86
6835;BME280;3455;42.150;24.734;2023-02-13T13:28:49;68288.56;;;27.04;14.18
6835;BME280;3455;42.150;24.734;2023-02-13T13:31:18;68424.81;;;28.05;13.88
6835;BME280;3455;42.150;24.734;2023-02-13T13:33:48;68301.72;;;27.34;14.20
6835;BME280;3455;42.150;24.734;2023-02-13T13:36:21;68318.66;;;27.03;14.50
6835;BME280;3455;42.150;24.734;2023-02-13T13:38:56;68275.13;;;26.92;14.63
6835;BME280;3455;42.150;24.734;2023-02-13T13:41:31;68296.19;;;27.11;14.08
6835;BME280;3455;42.150;24.734;2023-02-13T13:44:14;68334.25;;;27.44;14.13